Time;durP1;ratioP1;P1;durP2;ratioP2;P2;SDS_P1;SDS_P2;PMS_P1;PMS_P2;Temp;Humidity;BMP_temperature;BMP_pressure;BME280_temperature;BME280_humidity;BME280_pressure;Samples;Min_cycle;Max_cycle;Signal;HPM_P1;HPM_P2
2022/09/15 00:00:11;;;;;;;11.55;6.07;;;;;;;21.88;52.06;100472.06;4920597;29;20035;-68
2022/09/15 00:02:36;;;;;;;10.98;6.32;;;;;;;21.83;51.88;100480.03;4936411;29;20028;-68
2022/09/15 00:05:02;;;;;;;16.10;6.80;;;;;;;21.79;51.47;100476.03;4920347;29;20051;-69
2022/09/15 00:07:28;;;;;;;10.35;5.47;;;;;;;21.75;51.96;100470.13;4935965;29;20028;-69
2022/09/15 00:09:53;;;;;;;12.63;5.85;;;;;;;21.70;51.42;100471.81;4920071;29;20091;-68
2022/09/15 00:12:19;;;;;;;11.65;6.00;;;;;;;21.66;51.08;100481.50;4935834;29;20039;-68
2022/09/15 00:14:44;;;;;;;12.95;6.35;;;;;;;21.63;51.00;100481.91;4935804;29;20038;-68
2022/09/15 00:17:09;;;;;;;16.23;6.68;;;;;;;21.57;51.57;100469.09;4904248;29;20030;-68
2022/09/15 00:19:35;;;;;;;13.20;6.75;;;;;;;21.54;51.27;100473.09;4935790;29;20023;-69
2022/09/15 00:22:00;;;;;;;11.50;6.22;;;;;;;21.51;51.65;100475.38;4936921;29;20040;-68
2022/09/15 00:24:26;;;;;;;14.20;6.93;;;;;;;21.49;51.57;100475.59;4919922;29;20086;-68
2022/09/15 00:26:51;;;;;;;11.13;6.25;;;;;;;21.46;50.83;100476.88;4919685;29;20039;-68
2022/09/15 00:29:17;;;;;;;15.35;6.60;;;;;;;21.42;51.58;100470.13;4935453;29;20031;-68
2022/09/15 00:31:43;;;;;;;12.32;6.18;;;;;;;21.39;51.74;100470.56;4935426;29;20083;-68
2022/09/15 00:34:12;;;;;;;14.05;5.55;;;;;;;21.33;51.43;100465.94;4935463;29;20020;-68
2022/09/15 00:36:37;;;;;;;11.00;5.28;;;;;;;21.32;51.15;100469.72;4919752;29;20035;-68
2022/09/15 00:39:03;;;;;;;9.48;5.60;;;;;;;21.20;51.40;100454.19;4936533;29;20031;-68
2022/09/15 00:41:29;;;;;;;8.65;4.60;;;;;;;21.25;51.22;100471.59;4919584;29;20078;-68
2022/09/15 00:43:56;;;;;;;9.35;5.72;;;;;;;21.21;51.33;100462.16;4919722;29;20035;-68
2022/09/15 00:46:42;;;;;;;7.53;4.20;;;;;;;21.18;51.82;100475.34;4919539;29;20023;-68
2022/09/15 00:49:07;;;;;;;8.30;4.18;;;;;;;21.14;51.33;100472.19;4935131;29;20501;-68
2022/09/15 00:51:40;;;;;;;9.50;4.93;;;;;;;21.11;51.56;100475.31;4935202;29;20126;-68
2022/09/15 00:54:10;;;;;;;10.30;5.65;;;;;;;21.06;51.30;100472.34;4935235;29;20023;-68
2022/09/15 00:56:37;;;;;;;8.85;5.10;;;;;;;21.03;50.93;100470.03;4935291;29;20031;-68
2022/09/15 00:59:06;;;;;;;11.23;6.05;;;;;;;21.00;51.57;100467.72;4935203;29;20027;-68
2022/09/15 01:01:31;;;;;;;10.00;5.07;;;;;;;20.98;51.15;100469.81;4919312;29;20067;-68
2022/09/15 01:03:57;;;;;;;8.52;4.97;;;;;;;20.96;51.07;100462.91;4919297;29;20062;-71
2022/09/15 01:06:35;;;;;;;9.75;5.32;;;;;;;20.92;51.86;100457.03;4919332;29;20023;-68
2022/09/15 01:09:17;;;;;;;7.95;4.65;;;;;;;20.88;51.48;100467.47;4935145;29;20027;-68
2022/09/15 01:11:42;;;;;;;13.35;4.57;;;;;;;20.84;51.35;100465.38;4919095;29;20031;-68
2022/09/15 01:14:08;;;;;;;12.55;5.50;;;;;;;20.81;51.11;100466.63;4919188;29;20042;-68
2022/09/15 01:16:59;;;;;;;11.30;4.63;;;;;;;20.79;51.41;100465.16;4919109;29;20031;-68
2022/09/15 01:19:39;;;;;;;8.50;4.43;;;;;;;20.75;50.92;100478.31;4936115;29;20027;-68
2022/09/15 01:22:13;;;;;;;11.85;5.10;;;;;;;20.74;51.77;100470.38;4934995;29;20066;-68
2022/09/15 01:25:13;;;;;;;10.98;5.53;;;;;;;20.71;51.11;100471.63;4934867;29;20067;-68
2022/09/15 01:28:06;;;;;;;10.65;5.82;;;;;;;20.69;51.57;100465.53;4934857;29;20447;-68
2022/09/15 01:30:36;;;;;;;10.57;6.45;;;;;;;20.67;51.29;100467.63;4936171;29;20030;-68
2022/09/15 01:33:33;;;;;;;10.93;5.95;;;;;;;20.67;51.14;100464.06;4934848;29;20402;-68
2022/09/15 01:36:04;;;;;;;10.43;5.50;;;;;;;20.66;50.94;100473.28;4935114;29;20127;-68
2022/09/15 01:38:59;;;;;;;9.70;4.97;;;;;;;20.64;51.34;100469.91;4935925;29;20505;-68
2022/09/15 01:41:45;;;;;;;9.20;5.00;;;;;;;20.60;51.20;100464.00;4938469;29;20056;-67
2022/09/15 01:44:34;;;;;;;10.95;5.25;;;;;;;20.58;51.32;100465.25;4922564;29;20027;-67
2022/09/15 01:47:02;;;;;;;9.90;5.65;;;;;;;20.55;51.50;100460.22;4938731;29;20482;-68
2022/09/15 01:49:39;;;;;;;14.60;5.38;;;;;;;20.53;51.61;100454.16;4938491;29;20039;-68
2022/09/15 01:52:04;;;;;;;7.93;4.15;;;;;;;20.52;51.24;100457.94;4922499;29;20036;-68
2022/09/15 01:54:34;;;;;;;9.45;4.40;;;;;;;20.50;51.38;100460.00;4939604;29;20027;-71
2022/09/15 01:57:01;;;;;;;11.90;5.15;;;;;;;20.51;51.09;100469.84;4938547;29;20533;-68
2022/09/15 01:59:27;;;;;;;11.10;5.82;;;;;;;20.50;51.39;100473.59;4938337;29;20070;-67
2022/09/15 02:01:58;;;;;;;10.43;5.15;;;;;;;20.53;51.56;100478.66;4938351;29;20075;-68
2022/09/15 02:04:30;;;;;;;10.52;5.82;;;;;;;20.54;51.48;100477.63;4938362;29;20036;-68
2022/09/15 02:07:01;;;;;;;8.10;4.85;;;;;;;20.54;51.13;100480.34;4938224;29;20111;-68
2022/09/15 02:09:33;;;;;;;15.40;4.93;;;;;;;20.52;51.31;100487.88;4938241;29;20031;-68
2022/09/15 02:12:18;;;;;;;8.98;5.32;;;;;;;20.51;51.09;100486.19;4938266;29;20063;-68
2022/09/15 02:15:07;;;;;;;8.82;4.75;;;;;;;20.52;51.90;100493.31;4938058;29;20032;-68
2022/09/15 02:17:37;;;;;;;10.88;4.72;;;;;;;20.50;51.45;100492.66;4938184;29;20023;-68
2022/09/15 02:20:14;;;;;;;12.07;5.15;;;;;;;20.51;51.30;100494.34;4938108;29;20393;-68
2022/09/15 02:22:42;;;;;;;10.77;5.57;;;;;;;20.51;51.26;100494.34;4937912;29;20031;-68
2022/09/15 02:25:11;;;;;;;13.30;6.53;;;;;;;20.50;51.07;100489.94;4922439;29;20031;-68
2022/09/15 02:27:46;;;;;;;12.23;5.20;;;;;;;20.52;51.00;100487.88;4937904;29;20020;-68
2022/09/15 02:30:13;;;;;;;13.27;6.15;;;;;;;20.51;51.15;100495.19;4922022;29;20031;-68
2022/09/15 02:32:45;;;;;;;9.02;5.60;;;;;;;20.50;51.58;100487.22;4937589;29;20187;-68
2022/09/15 02:35:12;;;;;;;12.20;5.60;;;;;;;20.52;51.56;100487.88;4937808;29;20032;-68
2022/09/15 02:37:37;;;;;;;11.82;6.07;;;;;;;20.54;51.67;100492.06;4937785;29;20106;-68
2022/09/15 02:40:04;;;;;;;11.82;6.00;;;;;;;20.56;52.15;100489.97;4937648;29;20502;-68
2022/09/15 02:42:30;;;;;;;10.07;6.05;;;;;;;20.60;51.74;100490.41;4937731;29;20023;-69
2022/09/15 02:44:57;;;;;;;11.95;6.32;;;;;;;20.61;51.34;100475.75;4921600;29;20019;-68
2022/09/15 02:47:23;;;;;;;11.68;5.90;;;;;;;20.64;51.69;100478.91;4938631;29;20046;-68
2022/09/15 02:49:48;;;;;;;15.35;5.97;;;;;;;20.68;51.95;100482.91;4937507;29;20509;-68
2022/09/15 02:52:14;;;;;;;11.52;5.88;;;;;;;20.69;51.51;100478.28;4937136;29;20027;-68
2022/09/15 02:54:39;;;;;;;13.52;6.18;;;;;;;20.72;52.06;100478.72;4937386;29;20035;-68
2022/09/15 02:57:05;;;;;;;14.52;6.20;;;;;;;20.76;51.72;100485.47;4937402;29;20439;-68
2022/09/15 03:00:11;;;;;;;10.73;5.28;;;;;;;20.80;51.97;100485.88;4938446;29;20070;-69
2022/09/15 03:02:18;;;;;;;12.15;6.38;;;;;;;20.81;51.86;100487.56;4937187;29;20039;-68
2022/09/15 03:04:47;;;;;;;13.07;6.03;;;;;;;20.84;51.54;100487.16;4938350;29;20048;-68
2022/09/15 03:07:13;;;;;;;18.42;8.02;;;;;;;20.87;52.11;100479.44;4921752;29;20031;-68
2022/09/15 03:09:38;;;;;;;12.52;6.05;;;;;;;20.89;51.70;100468.31;4937263;29;20090;-68
2022/09/15 03:12:04;;;;;;;19.63;6.15;;;;;;;20.89;51.91;100471.88;4921178;29;20083;-68
2022/09/15 03:14:31;;;;;;;12.32;6.18;;;;;;;20.91;51.37;100477.13;4921072;29;20046;-71
2022/09/15 03:16:57;;;;;;;11.98;5.85;;;;;;;20.95;51.32;100478.41;4921393;29;20028;-68
2022/09/15 03:19:23;;;;;;;10.35;5.70;;;;;;;20.96;51.93;100485.53;4936869;29;20020;-68
2022/09/15 03:21:48;;;;;;;16.00;7.45;;;;;;;20.97;51.67;100484.47;4936957;29;20122;-68
2022/09/15 03:24:14;;;;;;;14.98;6.32;;;;;;;20.99;52.34;100479.69;4936907;29;20031;-68
2022/09/15 03:26:39;;;;;;;13.02;7.13;;;;;;;21.00;51.62;100465.00;4938143;29;20103;-68
2022/09/15 03:29:05;;;;;;;13.90;6.40;;;;;;;21.01;51.78;100468.56;4936853;29;20030;-68
2022/09/15 03:31:30;;;;;;;9.93;6.05;;;;;;;20.99;51.35;100474.22;4936478;29;20422;-69
2022/09/15 03:33:56;;;;;;;10.27;5.90;;;;;;;20.99;51.87;100478.84;4936788;29;20037;-69
2022/09/15 03:36:23;;;;;;;12.38;6.13;;;;;;;21.00;52.06;100478.63;4936861;29;20059;-67
2022/09/15 03:38:48;;;;;;;11.85;6.22;;;;;;;21.00;52.16;100475.03;4921277;29;20028;-68
2022/09/15 03:41:14;;;;;;;16.55;6.60;;;;;;;20.99;51.29;100482.41;4936600;29;20362;-68
2022/09/15 03:43:40;;;;;;;13.70;5.88;;;;;;;20.97;51.46;100480.91;4936476;29;20055;-68
2022/09/15 03:46:06;;;;;;;12.23;6.20;;;;;;;20.97;52.31;100487.19;4936561;29;20024;-68
2022/09/15 03:48:34;;;;;;;12.02;6.60;;;;;;;20.93;51.77;100480.50;4936634;29;20042;-68
2022/09/15 03:51:00;;;;;;;15.00;6.93;;;;;;;20.93;51.51;100488.66;4920797;29;20035;-68
2022/09/15 03:53:25;;;;;;;15.40;6.88;;;;;;;20.88;51.38;100483.81;4936254;29;20478;-68
2022/09/15 03:55:51;;;;;;;11.60;6.22;;;;;;;20.86;51.53;100479.63;4936292;29;20035;-68
2022/09/15 03:58:17;;;;;;;15.20;6.57;;;;;;;20.83;52.19;100478.16;4936217;29;20039;-68
2022/09/15 04:00:44;;;;;;;13.82;7.35;;;;;;;20.82;51.60;100472.91;4936393;29;20494;-68
2022/09/15 04:03:10;;;;;;;14.75;6.40;;;;;;;20.80;51.25;100464.94;4935478;29;20032;-68
2022/09/15 04:05:35;;;;;;;11.95;6.15;;;;;;;20.82;52.07;100464.75;4920425;29;20397;-68
2022/09/15 04:08:01;;;;;;;12.70;6.70;;;;;;;20.81;51.55;100466.63;4920249;29;20138;-68
2022/09/15 04:10:27;;;;;;;11.60;6.57;;;;;;;20.79;51.83;100463.28;4920165;29;20078;-68
2022/09/15 04:12:53;;;;;;;12.98;6.28;;;;;;;20.82;51.47;100470.19;4935895;29;20043;-68
2022/09/15 04:15:19;;;;;;;12.40;6.82;;;;;;;20.83;52.13;100469.13;4935984;29;20055;-68
2022/09/15 04:17:45;;;;;;;13.80;6.18;;;;;;;20.85;51.32;100478.78;4920213;29;20114;-69
2022/09/15 04:20:10;;;;;;;13.52;6.57;;;;;;;20.87;52.13;100476.72;4935955;29;20057;-68
2022/09/15 04:22:36;;;;;;;10.60;5.50;;;;;;;20.88;51.40;100480.28;4937261;29;20035;-68
2022/09/15 04:25:01;;;;;;;14.38;6.60;;;;;;;20.89;51.34;100468.31;4936007;29;20036;-68
2022/09/15 04:27:27;;;;;;;13.82;6.47;;;;;;;20.89;51.49;100471.03;4935727;29;20062;-69
2022/09/15 04:29:53;;;;;;;15.20;7.10;;;;;;;20.90;51.41;100478.19;4936960;29;20028;-68
2022/09/15 04:32:19;;;;;;;17.27;7.20;;;;;;;20.89;51.70;100476.50;4935726;29;20051;-68
2022/09/15 04:34:45;;;;;;;15.32;6.43;;;;;;;20.89;51.56;100484.66;4935609;29;20078;-68
2022/09/15 04:37:10;;;;;;;17.02;6.57;;;;;;;20.87;51.62;100484.88;4936841;29;20114;-70
2022/09/15 04:39:36;;;;;;;18.70;6.80;;;;;;;20.88;51.71;100483.00;4935761;29;20040;-67
2022/09/15 04:42:04;;;;;;;14.82;6.72;;;;;;;20.89;51.95;100490.09;4936685;29;20058;-68
2022/09/15 04:44:30;;;;;;;14.30;6.97;;;;;;;20.90;51.53;100494.50;4919949;29;20032;-70
2022/09/15 04:46:55;;;;;;;12.35;6.07;;;;;;;20.86;51.54;100490.50;4935521;29;20035;-71
2022/09/15 04:49:21;;;;;;;18.17;7.90;;;;;;;20.88;51.50;100488.44;4935308;29;20106;-68
2022/09/15 04:51:46;;;;;;;12.27;6.68;;;;;;;20.86;51.28;100491.34;4936586;29;20059;-68
2022/09/15 04:54:11;;;;;;;16.05;7.82;;;;;;;20.85;51.46;100497.84;4919855;29;20401;-68
2022/09/15 04:56:37;;;;;;;14.85;7.22;;;;;;;20.84;52.15;100498.91;4936377;29;20035;-68
2022/09/15 04:59:03;;;;;;;17.38;7.82;;;;;;;20.83;51.86;100501.81;4936460;29;20042;-68
2022/09/15 05:01:31;;;;;;;15.05;8.00;;;;;;;20.81;51.70;100493.00;4936447;29;20027;-68
2022/09/15 05:03:56;;;;;;;14.07;7.18;;;;;;;20.83;51.70;100496.34;4935309;29;20024;-68
2022/09/15 05:06:25;;;;;;;16.10;6.95;;;;;;;20.83;51.28;100507.25;4919365;29;20107;-68
2022/09/15 05:08:53;;;;;;;16.05;7.10;;;;;;;20.81;51.89;100504.75;4919327;29;20028;-68
2022/09/15 05:11:18;;;;;;;18.13;7.85;;;;;;;20.82;52.15;100502.88;4935076;29;20041;-69
2022/09/15 05:13:44;;;;;;;14.65;7.55;;;;;;;20.82;51.65;100497.41;4935212;29;20477;-68
2022/09/15 05:16:14;;;;;;;18.20;7.85;;;;;;;20.80;52.11;100504.94;4934947;29;20106;-70
2022/09/15 05:18:41;;;;;;;22.48;8.15;;;;;;;20.77;51.91;100498.00;4919339;29;20516;-68
2022/09/15 05:21:08;;;;;;;16.15;8.27;;;;;;;20.77;51.85;100508.09;4935072;29;20028;-68
2022/09/15 05:23:34;;;;;;;20.63;8.10;;;;;;;20.78;51.68;100507.03;4935164;29;20032;-68
2022/09/15 05:26:01;;;;;;;14.88;7.43;;;;;;;20.79;51.35;100506.00;4934891;29;20481;-68
2022/09/15 05:28:27;;;;;;;15.15;7.85;;;;;;;20.78;51.77;100509.75;4935103;29;20028;-68
2022/09/15 05:30:53;;;;;;;18.58;8.23;;;;;;;20.78;52.01;100510.59;4935201;29;20478;-67
2022/09/15 05:33:20;;;;;;;22.13;9.32;;;;;;;20.75;52.04;100510.16;4934734;29;20138;-68
2022/09/15 05:35:53;;;;;;;18.17;8.63;;;;;;;20.80;51.56;100513.09;4934884;29;20083;-68
2022/09/15 05:38:18;;;;;;;18.77;8.73;;;;;;;20.81;51.55;100523.81;4934908;29;20024;-68
2022/09/15 05:40:44;;;;;;;19.98;7.82;;;;;;;20.82;51.66;100516.47;4918942;29;20030;-68
2022/09/15 05:43:10;;;;;;;18.13;8.95;;;;;;;20.83;51.77;100524.44;4934708;29;20063;-68
2022/09/15 05:45:35;;;;;;;25.25;9.70;;;;;;;20.85;52.24;100521.53;4934801;29;20019;-68
2022/09/15 05:48:01;;;;;;;16.38;8.15;;;;;;;20.89;51.25;100520.91;4934796;29;20035;-68
2022/09/15 05:50:26;;;;;;;17.95;9.95;;;;;;;20.90;51.17;100521.75;4919303;29;20393;-68
2022/09/15 05:52:52;;;;;;;17.35;8.38;;;;;;;20.92;51.60;100519.66;4934990;29;20079;-70
2022/09/15 05:55:17;;;;;;;16.58;9.07;;;;;;;20.96;52.21;100530.97;4918799;29;20023;-67
2022/09/15 05:57:43;;;;;;;18.92;9.05;;;;;;;20.96;51.30;100529.09;4934697;29;20537;-69
2022/09/15 06:00:10;;;;;;;17.35;8.85;;;;;;;21.01;51.62;100536.66;4918985;29;20023;-68
2022/09/15 06:02:35;;;;;;;19.17;9.55;;;;;;;21.03;51.75;100538.13;4935856;29;20031;-68
2022/09/15 06:05:01;;;;;;;21.02;9.40;;;;;;;21.06;51.78;100536.88;4936056;29;20472;-68
2022/09/15 06:07:27;;;;;;;22.98;9.73;;;;;;;21.07;52.24;100538.56;4934864;29;20034;-68
2022/09/15 06:09:53;;;;;;;25.13;11.07;;;;;;;21.10;51.92;100536.31;4935679;29;20031;-68
2022/09/15 06:12:18;;;;;;;20.73;9.95;;;;;;;21.13;51.71;100546.81;4934553;29;20063;-68
2022/09/15 06:14:44;;;;;;;27.48;9.75;;;;;;;21.16;51.82;100545.56;4935639;29;20493;-67
2022/09/15 06:17:10;;;;;;;21.38;10.13;;;;;;;21.18;52.17;100544.31;4935906;29;20038;-68
2022/09/15 06:19:35;;;;;;;20.20;9.55;;;;;;;21.21;52.21;100546.63;4935663;29;20032;-67
2022/09/15 06:22:00;;;;;;;23.95;10.60;;;;;;;21.25;51.55;100547.88;4934510;29;20413;-68
2022/09/15 06:24:26;;;;;;;25.52;10.05;;;;;;;21.31;51.38;100543.47;4934667;29;20500;-68
2022/09/15 06:26:51;;;;;;;22.20;9.93;;;;;;;21.35;51.68;100556.50;4921132;29;20086;-68
2022/09/15 06:29:17;;;;;;;22.50;10.85;;;;;;;21.39;52.02;100546.88;4938873;29;20070;-68
2022/09/15 06:31:42;;;;;;;17.77;9.88;;;;;;;21.38;51.92;100538.91;4938829;29;20399;-68
2022/09/15 06:34:08;;;;;;;18.98;9.40;;;;;;;21.43;51.36;100541.84;4937830;29;20509;-68
2022/09/15 06:36:35;;;;;;;20.52;10.38;;;;;;;21.45;51.60;100551.50;4937739;29;20020;-69
2022/09/15 06:39:01;;;;;;;21.35;10.85;;;;;;;21.49;51.31;100546.47;4937623;29;20024;-68
2022/09/15 06:41:29;;;;;;;23.13;10.25;;;;;;;21.53;52.09;100536.81;4937548;29;20024;-68
2022/09/15 06:43:55;;;;;;;21.27;9.98;;;;;;;21.61;52.02;100546.72;4937600;29;20504;-68
2022/09/15 06:46:23;;;;;;;23.13;10.32;;;;;;;21.66;52.15;100549.66;4937621;29;20023;-68
2022/09/15 06:48:50;;;;;;;26.15;10.25;;;;;;;21.72;51.65;100557.00;4937484;29;20051;-68
2022/09/15 06:51:17;;;;;;;20.05;9.77;;;;;;;21.77;51.48;100554.47;4937474;29;20047;-68
2022/09/15 06:53:43;;;;;;;18.38;9.50;;;;;;;21.82;51.29;100557.41;4921584;29;20478;-68
2022/09/15 06:56:13;;;;;;;19.20;9.82;;;;;;;21.83;52.18;100553.66;4921498;29;20020;-68
2022/09/15 06:58:40;;;;;;;22.48;10.00;;;;;;;21.88;52.21;100567.53;4937380;29;20028;-68
2022/09/15 07:01:11;;;;;;;23.80;10.52;;;;;;;21.93;51.69;100565.84;4937453;29;20023;-68
2022/09/15 07:03:38;;;;;;;23.23;10.35;;;;;;;21.93;51.89;100565.00;4937234;29;20024;-68
2022/09/15 07:06:04;;;;;;;21.55;9.80;;;;;;;22.00;52.00;100577.59;4937249;29;20026;-69
2022/09/15 07:08:30;;;;;;;22.13;10.60;;;;;;;22.02;52.09;100574.66;4921315;29;20027;-70
2022/09/15 07:10:56;;;;;;;24.75;10.18;;;;;;;22.06;52.15;100584.09;4937083;29;20042;-68
2022/09/15 07:13:22;;;;;;;24.67;10.30;;;;;;;22.10;52.03;100587.25;4921096;29;20078;-68
2022/09/15 07:15:55;;;;;;;18.98;9.25;;;;;;;22.14;51.17;100594.00;4936963;29;20031;-68
2022/09/15 07:18:21;;;;;;;19.23;9.48;;;;;;;22.17;51.71;100594.38;4937056;29;20032;-68
2022/09/15 07:20:47;;;;;;;24.02;8.95;;;;;;;22.22;51.99;100591.03;4937047;29;20091;-68
2022/09/15 07:23:12;;;;;;;20.52;10.65;;;;;;;22.26;51.63;100581.38;4936888;29;20059;-68
2022/09/15 07:25:43;;;;;;;18.60;9.35;;;;;;;22.30;51.00;100578.03;4936840;29;20026;-69
2022/09/15 07:28:12;;;;;;;23.88;9.35;;;;;;;22.39;51.86;100592.28;4937968;29;20024;-68
2022/09/15 07:30:38;;;;;;;17.98;9.13;;;;;;;22.45;51.50;100584.06;4936842;29;20117;-68
2022/09/15 07:33:05;;;;;;;21.63;10.70;;;;;;;22.53;51.85;100589.31;4936595;29;20386;-67
2022/09/15 07:35:30;;;;;;;20.10;9.45;;;;;;;22.69;51.10;100599.00;4936735;29;20024;-69
2022/09/15 07:37:55;;;;;;;18.88;9.50;;;;;;;22.79;51.22;100593.06;4936834;29;20027;-68
2022/09/15 07:40:21;;;;;;;17.95;9.52;;;;;;;22.89;51.54;100598.94;4937649;29;20394;-68
2022/09/15 07:42:46;;;;;;;20.25;9.68;;;;;;;22.92;50.59;100601.25;4936454;29;20082;-68
2022/09/15 07:45:11;;;;;;;20.40;9.65;;;;;;;22.96;50.66;100605.22;4920721;29;20059;-68
2022/09/15 07:47:37;;;;;;;18.95;9.50;;;;;;;22.99;50.76;100615.72;4936477;29;20031;-68
2022/09/15 07:50:04;;;;;;;19.38;9.90;;;;;;;23.06;51.42;100617.34;4936601;29;20078;-68
2022/09/15 07:52:29;;;;;;;18.65;8.88;;;;;;;23.13;50.94;100617.34;4937779;29;20034;-70
2022/09/15 07:54:55;;;;;;;21.75;9.10;;;;;;;23.22;51.35;100623.41;4936347;29;20461;-68
2022/09/15 07:57:20;;;;;;;20.40;10.50;;;;;;;23.28;51.28;100626.13;4920349;29;20031;-68
2022/09/15 07:59:46;;;;;;;23.00;9.98;;;;;;;23.34;50.31;100621.69;4920260;29;20036;-69
2022/09/15 08:02:18;;;;;;;17.52;8.48;;;;;;;23.44;51.22;100625.66;4936235;29;20034;-68
2022/09/15 08:04:44;;;;;;;19.10;9.27;;;;;;;23.53;50.16;100629.81;4936044;29;20019;-68
2022/09/15 08:07:10;;;;;;;16.83;8.52;;;;;;;23.63;50.72;100626.59;4935959;29;20032;-68
2022/09/15 08:09:36;;;;;;;24.25;10.82;;;;;;;23.72;50.37;100628.03;4935921;29;20474;-69
2022/09/15 08:12:02;;;;;;;25.60;9.73;;;;;;;23.81;50.36;100631.34;4935943;29;20023;-69
2022/09/15 08:14:30;;;;;;;20.70;9.30;;;;;;;23.90;49.94;100636.31;4937127;29;20035;-69
2022/09/15 08:16:59;;;;;;;15.60;8.68;;;;;;;23.97;50.48;100636.28;4935870;29;20028;-68
2022/09/15 08:19:28;;;;;;;18.30;8.50;;;;;;;24.08;50.16;100644.63;4935836;29;20023;-68
2022/09/15 08:21:53;;;;;;;20.27;9.13;;;;;;;24.23;49.81;100647.09;4919909;29;20023;-68
2022/09/15 08:24:19;;;;;;;20.45;8.60;;;;;;;24.39;49.37;100654.75;4936920;29;20498;-69
2022/09/15 08:26:45;;;;;;;20.48;7.85;;;;;;;24.52;49.38;100651.03;4919970;29;20031;-69
2022/09/15 08:29:11;;;;;;;11.02;7.30;;;;;;;24.67;49.58;100657.84;4935437;29;20023;-69
2022/09/15 08:31:36;;;;;;;18.13;7.32;;;;;;;24.80;49.77;100657.75;4935238;29;20048;-69
2022/09/15 08:34:05;;;;;;;19.40;8.68;;;;;;;24.94;49.25;100660.34;4935505;29;20497;-69
2022/09/15 08:36:30;;;;;;;14.63;7.30;;;;;;;25.09;48.81;100652.59;4904671;29;20406;-69
2022/09/15 08:38:56;;;;;;;17.15;7.97;;;;;;;25.11;49.30;100661.44;4935293;29;20039;-69
2022/09/15 08:41:29;;;;;;;11.27;6.80;;;;;;;25.11;48.93;100653.19;4935360;29;20023;-69
2022/09/15 08:44:04;;;;;;;12.15;6.60;;;;;;;25.09;49.35;100647.13;4919582;29;20397;-68
2022/09/15 08:46:53;;;;;;;14.77;6.75;;;;;;;25.08;49.16;100657.25;4935288;29;20019;-69
2022/09/15 08:49:32;;;;;;;13.63;6.75;;;;;;;25.11;49.11;100655.94;4934921;29;20048;-69
2022/09/15 08:52:03;;;;;;;11.05;6.05;;;;;;;25.21;49.08;100661.75;4935401;29;20034;-69
2022/09/15 08:54:29;;;;;;;11.55;6.03;;;;;;;25.20;48.92;100657.31;4935211;29;20036;-69
2022/09/15 08:56:56;;;;;;;11.38;6.25;;;;;;;25.17;48.79;100666.00;4935315;29;20024;-69
2022/09/15 08:59:21;;;;;;;12.77;5.53;;;;;;;25.17;49.16;100666.00;4935314;29;20079;-69
2022/09/15 09:01:58;;;;;;;11.10;6.20;;;;;;;25.17;48.66;100666.84;4919273;29;20031;-69
2022/09/15 09:04:51;;;;;;;12.77;6.15;;;;;;;25.23;49.08;100670.59;4936220;29;20036;-69
2022/09/15 09:07:47;;;;;;;14.18;7.53;;;;;;;25.19;48.55;100669.34;4936215;29;20031;-70
2022/09/15 09:10:22;;;;;;;12.13;7.43;;;;;;;25.13;48.70;100670.25;4936264;29;20175;-69
2022/09/15 09:13:02;;;;;;;10.82;5.00;;;;;;;25.11;48.85;100669.66;4935025;29;20020;-69
2022/09/15 09:16:08;;;;;;;9.00;5.43;;;;;;;25.15;48.64;100673.63;4935214;29;20035;-69
2022/09/15 09:18:57;;;;;;;11.32;5.50;;;;;;;25.19;48.57;100683.06;4919274;29;20027;-69
2022/09/15 09:21:29;;;;;;;9.95;5.30;;;;;;;25.23;48.22;100687.03;4934868;29;20106;-70
2022/09/15 09:24:04;;;;;;;8.88;5.35;;;;;;;25.31;48.76;100689.47;4934808;29;20055;-70
2022/09/15 09:26:34;;;;;;;10.68;5.85;;;;;;;25.44;48.75;100692.03;4934934;29;20422;-70
2022/09/15 09:29:17;;;;;;;12.45;6.68;;;;;;;25.62;48.17;100699.47;4919019;29;20126;-70
2022/09/15 09:31:45;;;;;;;9.23;5.53;;;;;;;25.79;48.07;100687.63;4934536;29;20051;-70
2022/09/15 09:34:27;;;;;;;13.32;5.20;;;;;;;26.10;47.36;100693.94;4934875;29;20062;-71
2022/09/15 09:36:58;;;;;;;13.32;5.93;;;;;;;26.31;47.10;100685.19;4918962;29;20046;-70
2022/09/15 09:39:24;;;;;;;15.30;5.20;;;;;;;26.33;47.77;100699.53;4918940;29;20430;-69
2022/09/15 09:41:50;;;;;;;10.07;4.45;;;;;;;26.27;47.21;100689.50;4918879;29;20036;-70
2022/09/15 09:44:16;;;;;;;8.15;4.35;;;;;;;26.25;47.67;100689.72;4935950;29;20040;-70
2022/09/15 09:46:42;;;;;;;8.57;4.60;;;;;;;26.24;47.26;100692.72;4918967;29;20028;-70
2022/09/15 09:49:17;;;;;;;11.38;4.15;;;;;;;26.28;47.57;100686.50;4934741;29;20374;-70
2022/09/15 09:51:58;;;;;;;11.27;4.88;;;;;;;26.32;47.44;100689.63;4934590;29;20036;-71
2022/09/15 09:54:27;;;;;;;9.65;5.40;;;;;;;26.32;46.66;100684.97;4918956;29;20099;-69
2022/09/15 09:56:54;;;;;;;10.00;5.63;;;;;;;26.37;47.32;100687.00;4934683;29;20047;-70
2022/09/15 09:59:37;;;;;;;10.57;5.15;;;;;;;26.50;47.38;100684.03;4918753;29;20145;-70
2022/09/15 10:02:04;;;;;;;8.63;3.67;;;;;;;26.61;46.31;100680.47;4937497;29;20074;-69
2022/09/15 10:04:30;;;;;;;6.90;3.63;;;;;;;26.73;46.96;100673.06;4938206;29;20378;-71
2022/09/15 10:06:55;;;;;;;8.50;3.55;;;;;;;26.83;46.31;100667.81;4922247;29;20027;-70
2022/09/15 10:09:20;;;;;;;6.00;3.08;;;;;;;26.89;46.48;100672.38;4922240;29;20412;-69
2022/09/15 10:11:54;;;;;;;8.85;2.85;;;;;;;26.96;46.15;100672.25;4922267;29;20038;-70
2022/09/15 10:14:37;;;;;;;4.75;2.35;;;;;;;26.99;45.50;100672.63;4922268;29;20478;-71
2022/09/15 10:17:09;;;;;;;5.38;1.70;;;;;;;27.10;45.10;100669.03;4937958;29;20055;-70
2022/09/15 10:19:36;;;;;;;;;;;;;;;27.41;45.75;100666.97;4938479;29;20502;-71
2022/09/15 10:22:02;;;;;;;4.63;1.33;;;;;;;27.57;44.69;100668.94;4937961;29;19917;-69
2022/09/15 10:24:40;;;;;;;5.55;1.42;;;;;;;27.74;44.28;100665.16;4922072;29;20114;-69
2022/09/15 10:27:18;;;;;;;3.33;1.65;;;;;;;27.86;44.33;100667.88;4921946;29;20510;-69
2022/09/15 10:29:44;;;;;;;10.43;2.88;;;;;;;27.96;43.65;100665.31;4937636;29;20034;-70
2022/09/15 10:32:30;;;;;;;4.88;1.77;;;;;;;27.97;44.01;100663.41;4921667;29;20410;-69
2022/09/15 10:35:12;;;;;;;2.05;1.27;;;;;;;27.94;43.84;100658.38;4937635;29;20027;-70
2022/09/15 10:38:05;;;;;;;3.40;1.38;;;;;;;27.93;44.23;100663.03;4922118;29;20034;-70
2022/09/15 10:40:32;;;;;;;;;;;;;;;27.97;44.52;100663.41;4939241;29;20099;-69
2022/09/15 10:43:10;;;;;;;6.55;1.35;;;;;;;28.01;44.30;100664.56;4937588;29;20295;-70
2022/09/15 10:45:39;;;;;;;3.92;1.42;;;;;;;28.01;43.65;100659.88;4921686;29;20118;-70
2022/09/15 10:48:36;;;;;;;6.38;1.13;;;;;;;28.07;43.98;100652.59;4937490;29;20504;-70
2022/09/15 10:51:16;;;;;;;3.80;1.00;;;;;;;28.22;42.76;100655.63;4937409;29;20548;-69
2022/09/15 10:54:17;;;;;;;2.88;0.75;;;;;;;28.33;42.52;100656.63;4937333;29;20028;-71
2022/09/15 10:56:48;;;;;;;3.35;1.15;;;;;;;28.46;42.68;100659.88;4938914;29;20048;-69
2022/09/15 10:59:29;;;;;;;1.67;0.57;;;;;;;28.61;42.67;100662.91;4921417;29;20023;-69
2022/09/15 11:02:13;;;;;;;4.38;1.30;;;;;;;28.80;42.32;100663.50;4937187;29;20028;-71
2022/09/15 11:05:03;;;;;;;3.28;0.95;;;;;;;29.01;41.46;100659.94;4938481;29;20461;-70
2022/09/15 11:07:48;;;;;;;2.95;0.70;;;;;;;29.15;41.73;100666.75;4938322;29;20385;-70
2022/09/15 11:10:44;;;;;;;6.35;0.60;;;;;;;29.34;40.93;100664.56;4937072;29;20118;-70
2022/09/15 11:13:29;;;;;;;3.20;0.80;;;;;;;29.45;41.26;100678.22;4936776;29;20024;-71
2022/09/15 11:16:18;;;;;;;2.17;0.93;;;;;;;29.55;40.99;100671.16;4937802;29;20050;-71
2022/09/15 11:18:55;;;;;;;2.65;0.82;;;;;;;29.74;41.16;100675.25;4937177;29;20481;-71
2022/09/15 11:21:27;;;;;;;0.75;0.50;;;;;;;29.78;40.46;100673.66;4936834;29;20063;-70
2022/09/15 11:23:58;;;;;;;2.88;0.77;;;;;;;29.76;40.53;100673.09;4938181;29;20038;-71
2022/09/15 11:26:34;;;;;;;1.48;0.70;;;;;;;29.63;40.52;100671.53;4921218;29;20067;-71
2022/09/15 11:29:13;;;;;;;1.77;0.60;;;;;;;29.56;40.51;100672.84;4936786;29;20020;-70
2022/09/15 11:31:41;;;;;;;1.02;0.90;;;;;;;29.53;40.71;100670.59;4936608;29;20047;-71